createdAt,value
2023-03-13T00:01:55.213Z,7.30
2023-03-13T00:04:23.373Z,7.20
2023-03-13T00:06:51.678Z,7.20
2023-03-13T00:09:22.728Z,7.20
2023-03-13T00:11:51.247Z,7.10
2023-03-13T00:14:19.240Z,7.10
2023-03-13T00:16:48.800Z,7.10
2023-03-13T00:19:17.191Z,7.00
2023-03-13T00:21:45.282Z,7.10
2023-03-13T00:24:13.547Z,7.00
2023-03-13T00:26:42.989Z,7.00
2023-03-13T00:29:11.596Z,7.00
2023-03-13T00:31:39.723Z,7.00
2023-03-13T00:34:08.194Z,7.00
2023-03-13T00:36:38.657Z,7.00
2023-03-13T00:39:07.601Z,6.90
2023-03-13T00:41:38.969Z,6.90
2023-03-13T00:44:09.412Z,6.90
2023-03-13T00:46:37.756Z,6.90
2023-03-13T00:49:06.111Z,6.90
2023-03-13T00:51:35.670Z,6.80
2023-03-13T00:54:05.130Z,6.80
2023-03-13T00:56:34.256Z,7.00
2023-03-13T00:59:02.895Z,7.10
2023-03-13T01:01:33.131Z,7.10
2023-03-13T01:04:02.980Z,7.00
2023-03-13T01:06:33.284Z,6.90
2023-03-13T01:09:01.799Z,6.90
2023-03-13T01:11:30.903Z,6.90
2023-03-13T01:14:00.666Z,7.00
2023-03-13T01:16:29.609Z,7.00
2023-03-13T01:19:01.079Z,7.00
2023-03-13T01:21:29.754Z,7.20
2023-03-13T01:23:58.772Z,7.30
2023-03-13T01:26:27.684Z,7.30
2023-03-13T01:28:56.206Z,7.40
2023-03-13T01:31:26.215Z,7.50
2023-03-13T01:33:56.047Z,7.50
2023-03-13T01:36:25.746Z,7.50
2023-03-13T01:38:54.610Z,7.30
2023-03-13T01:41:23.548Z,7.30
2023-03-13T01:43:51.924Z,7.00
2023-03-13T01:46:21.519Z,6.60
2023-03-13T01:48:58.720Z,6.60
2023-03-13T01:51:30.015Z,6.50
2023-03-13T01:54:02.891Z,6.40
2023-03-13T01:56:35.793Z,6.40
2023-03-13T01:59:05.421Z,6.40
2023-03-13T02:01:34.221Z,6.50
2023-03-13T02:04:05.705Z,6.40
2023-03-13T02:06:37.798Z,6.40
2023-03-13T02:09:08.971Z,6.50
2023-03-13T02:11:43.985Z,6.60
2023-03-13T02:14:13.595Z,6.70
2023-03-13T02:16:41.857Z,6.70
2023-03-13T02:19:17.940Z,6.60
2023-03-13T02:21:50.602Z,6.40
2023-03-13T02:24:23.167Z,6.10
2023-03-13T02:26:52.689Z,5.80
2023-03-13T02:29:21.838Z,5.70
2023-03-13T02:31:50.223Z,5.50
2023-03-13T02:34:21.819Z,5.40
2023-03-13T02:36:50.348Z,5.40
2023-03-13T02:39:21.484Z,5.30
2023-03-13T02:41:50.070Z,5.20
2023-03-13T02:44:20.145Z,5.20
2023-03-13T02:46:50.425Z,5.20
2023-03-13T02:49:21.995Z,5.20
2023-03-13T02:51:50.685Z,5.20
2023-03-13T02:54:20.461Z,5.20
2023-03-13T02:56:50.040Z,5.20
2023-03-13T02:59:20.685Z,5.10
2023-03-13T03:01:52.705Z,5.20
2023-03-13T03:04:22.556Z,5.20
2023-03-13T03:06:55.196Z,5.10
2023-03-13T03:09:24.632Z,5.10
2023-03-13T03:11:56.846Z,5.10
2023-03-13T03:14:30.787Z,5.20
2023-03-13T03:16:59.143Z,5.10
2023-03-13T03:19:28.293Z,5.10
2023-03-13T03:21:56.781Z,5.20
2023-03-13T03:24:25.043Z,5.20
2023-03-13T03:26:53.722Z,5.30
2023-03-13T03:29:27.988Z,5.30
2023-03-13T03:31:59.018Z,5.30
2023-03-13T03:34:27.641Z,5.30
2023-03-13T03:36:57.343Z,5.30
2023-03-13T03:39:25.399Z,5.30
2023-03-13T03:41:55.053Z,5.30
2023-03-13T03:44:24.263Z,5.30
2023-03-13T03:46:56.025Z,5.30
2023-03-13T03:49:26.818Z,5.30
2023-03-13T03:51:55.575Z,5.30
2023-03-13T03:54:30.132Z,5.30
2023-03-13T03:56:59.497Z,5.40
2023-03-13T03:59:28.113Z,5.30
2023-03-13T04:02:03.785Z,5.40
2023-03-13T04:04:35.033Z,5.40
2023-03-13T04:07:12.181Z,5.40
2023-03-13T04:09:42.482Z,5.50
2023-03-13T04:12:16.875Z,5.40
2023-03-13T04:15:06.590Z,5.40
2023-03-13T04:17:35.034Z,5.50
2023-03-13T04:20:06.783Z,5.50
2023-03-13T04:22:35.025Z,5.50
2023-03-13T04:25:04.373Z,5.60
2023-03-13T04:27:34.281Z,5.60
2023-03-13T04:30:03.686Z,5.60
2023-03-13T04:33:07.164Z,5.60
2023-03-13T04:35:42.738Z,5.60
2023-03-13T04:38:19.139Z,5.70
2023-03-13T04:41:10.398Z,5.70
2023-03-13T04:43:57.485Z,5.80
2023-03-13T04:46:40.190Z,5.90
2023-03-13T04:49:26.460Z,5.90
2023-03-13T04:52:13.331Z,6.00
2023-03-13T04:55:12.294Z,6.00
2023-03-13T04:58:09.583Z,6.00
2023-03-13T05:00:57.861Z,6.00
2023-03-13T05:03:49.585Z,6.00
2023-03-13T05:06:27.243Z,6.00
2023-03-13T05:09:21.536Z,6.20
2023-03-13T05:12:16.005Z,6.20
2023-03-13T05:14:56.693Z,6.40
2023-03-13T05:17:43.711Z,6.40
2023-03-13T05:20:26.292Z,6.50
2023-03-13T05:23:11.834Z,6.50
2023-03-13T05:26:00.582Z,6.50
2023-03-13T05:28:37.723Z,6.50
2023-03-13T05:31:21.392Z,6.50
2023-03-13T05:34:19.035Z,6.50
2023-03-13T05:37:06.114Z,6.60
2023-03-13T05:39:51.423Z,6.60
2023-03-13T05:42:21.092Z,6.50
2023-03-13T05:44:59.177Z,6.50
2023-03-13T05:47:50.970Z,6.50
2023-03-13T05:50:39.888Z,6.50
2023-03-13T05:53:40.411Z,6.50
2023-03-13T05:56:26.915Z,6.50
2023-03-13T05:59:17.197Z,6.60
2023-03-13T06:01:45.450Z,6.60
2023-03-13T06:04:21.883Z,6.60
2023-03-13T06:06:50.051Z,6.70
2023-03-13T06:09:20.038Z,6.70
2023-03-13T06:11:48.216Z,6.70
2023-03-13T06:14:18.262Z,6.80
2023-03-13T06:17:05.065Z,6.80
2023-03-13T06:19:34.032Z,6.90
2023-03-13T06:22:02.345Z,6.90
2023-03-13T06:24:30.739Z,7.00
2023-03-13T06:26:59.190Z,7.00
2023-03-13T06:29:28.926Z,7.10
2023-03-13T06:31:57.840Z,7.20
2023-03-13T06:34:26.194Z,7.20
2023-03-13T06:36:54.903Z,7.30
2023-03-13T06:39:23.235Z,7.30
2023-03-13T06:41:52.360Z,7.50
2023-03-13T06:44:21.041Z,7.40
2023-03-13T06:46:51.107Z,7.40
2023-03-13T06:49:24.793Z,7.40
2023-03-13T06:51:53.148Z,7.50
2023-03-13T06:54:21.137Z,7.40
2023-03-13T06:56:50.307Z,7.50
2023-03-13T06:59:18.441Z,7.40
2023-03-13T07:01:47.087Z,7.50
2023-03-13T07:04:16.852Z,7.50
2023-03-13T07:06:45.474Z,7.50
2023-03-13T07:09:13.695Z,7.50
2023-03-13T07:11:41.890Z,7.50
2023-03-13T07:14:16.919Z,7.50
2023-03-13T07:16:46.464Z,7.50
2023-03-13T07:19:15.472Z,7.60
2023-03-13T07:21:47.147Z,7.60
2023-03-13T07:24:15.728Z,7.70
2023-03-13T07:26:57.735Z,7.70
2023-03-13T07:29:32.418Z,7.80
2023-03-13T07:32:02.438Z,7.80
2023-03-13T07:34:31.128Z,7.90
2023-03-13T07:37:01.079Z,8.00
2023-03-13T07:39:30.230Z,8.80
2023-03-13T07:41:58.390Z,8.00
2023-03-13T07:44:28.288Z,8.10
2023-03-13T07:46:56.503Z,8.10
2023-03-13T07:49:26.285Z,8.20
2023-03-13T07:51:54.380Z,8.20
2023-03-13T07:54:25.723Z,8.30
2023-03-13T07:56:53.865Z,8.30
2023-03-13T07:59:23.465Z,8.40
2023-03-13T08:01:51.624Z,8.40
2023-03-13T08:04:20.575Z,8.40
2023-03-13T08:06:48.727Z,8.50
2023-03-13T08:09:17.082Z,8.60
2023-03-13T08:11:46.766Z,8.70
2023-03-13T08:14:15.191Z,8.70
2023-03-13T08:16:43.318Z,8.80
2023-03-13T08:19:12.527Z,8.90
2023-03-13T08:21:40.642Z,9.00
2023-03-13T08:24:10.875Z,9.10
2023-03-13T08:26:39.987Z,9.10
2023-03-13T08:29:11.770Z,9.20
2023-03-13T08:31:43.105Z,9.20
2023-03-13T08:36:58.744Z,9.30
2023-03-13T08:39:26.790Z,9.40
2023-03-13T08:41:54.909Z,9.40
2023-03-13T08:44:24.399Z,9.40
2023-03-13T08:46:52.564Z,9.50
2023-03-13T08:49:20.685Z,9.70
2023-03-13T08:51:48.874Z,9.70
2023-03-13T08:54:16.946Z,9.90
2023-03-13T08:56:45.352Z,10.00
2023-03-13T08:59:15.439Z,10.10
2023-03-13T09:01:45.096Z,10.40
2023-03-13T09:04:13.428Z,10.70
2023-03-13T09:06:41.685Z,10.90
2023-03-13T09:09:10.833Z,11.10
2023-03-13T09:11:39.516Z,11.30
2023-03-13T09:14:08.385Z,11.50
2023-03-13T09:16:36.673Z,11.60
2023-03-13T09:19:06.640Z,11.80
2023-03-13T09:21:35.640Z,12.00
2023-03-13T09:24:06.830Z,12.30
2023-03-13T09:26:35.225Z,12.50
2023-03-13T09:29:03.270Z,12.80
2023-03-13T09:31:32.058Z,13.00
2023-03-13T09:34:00.635Z,13.20
2023-03-13T09:36:30.333Z,13.60
2023-03-13T09:38:59.799Z,13.70
2023-03-13T09:41:31.252Z,13.70
2023-03-13T09:44:04.601Z,13.80
2023-03-13T09:46:37.499Z,14.00
2023-03-13T09:49:09.860Z,14.00
2023-03-13T09:51:41.198Z,14.20
2023-03-13T09:54:10.337Z,14.40
2023-03-13T09:56:41.903Z,14.70
2023-03-13T09:59:16.108Z,14.80
2023-03-13T10:01:45.251Z,14.80
2023-03-13T10:04:22.135Z,14.90
2023-03-13T10:06:52.194Z,15.10
2023-03-13T10:09:21.954Z,15.20
2023-03-13T10:11:54.630Z,15.30
2023-03-13T10:14:27.982Z,15.40
2023-03-13T10:16:57.668Z,15.50
2023-03-13T10:19:28.693Z,15.50
2023-03-13T10:21:58.199Z,15.60
2023-03-13T10:24:31.683Z,15.60
2023-03-13T10:27:00.145Z,15.80
2023-03-13T10:29:29.264Z,15.90
2023-03-13T10:31:59.107Z,16.10
2023-03-13T10:34:27.935Z,16.30
2023-03-13T10:36:57.798Z,16.40
2023-03-13T10:39:28.289Z,16.50
2023-03-13T10:42:01.036Z,16.40
2023-03-13T10:44:33.588Z,16.10
2023-03-13T10:47:02.734Z,16.10
2023-03-13T10:49:31.631Z,16.20
2023-03-13T10:52:00.788Z,16.30
2023-03-13T10:54:31.276Z,16.40
2023-03-13T10:57:10.100Z,16.50
2023-03-13T10:59:41.309Z,16.60
2023-03-13T11:02:19.474Z,16.70
2023-03-13T11:04:53.395Z,16.80
2023-03-13T11:07:25.390Z,16.80
2023-03-13T11:10:00.254Z,16.80
2023-03-13T11:12:28.695Z,16.90
2023-03-13T11:15:03.203Z,16.90
2023-03-13T11:17:33.953Z,16.80
2023-03-13T11:20:08.053Z,16.90
2023-03-13T11:22:43.701Z,17.10
2023-03-13T11:25:21.541Z,17.30
2023-03-13T11:27:53.048Z,17.50
2023-03-13T11:30:26.853Z,17.70
2023-03-13T11:32:56.135Z,17.90
2023-03-13T11:35:34.732Z,18.10
2023-03-13T11:38:04.580Z,18.20
2023-03-13T11:40:37.910Z,18.30
2023-03-13T11:43:24.431Z,18.50
2023-03-13T11:46:02.737Z,18.60
2023-03-13T11:48:38.864Z,18.60
2023-03-13T11:51:14.156Z,18.60
2023-03-13T11:53:58.624Z,18.70
2023-03-13T11:56:31.527Z,18.70
2023-03-13T11:59:17.545Z,18.80
2023-03-13T12:01:50.425Z,18.80
2023-03-13T12:04:21.388Z,18.80
2023-03-13T12:06:53.548Z,18.80
2023-03-13T12:09:25.719Z,18.80
2023-03-13T12:12:03.511Z,18.90
2023-03-13T12:14:33.974Z,19.10
2023-03-13T12:17:04.422Z,19.10
2023-03-13T12:19:35.093Z,19.20
2023-03-13T12:22:08.471Z,19.10
2023-03-13T12:24:39.740Z,18.90
2023-03-13T12:27:13.442Z,18.90
2023-03-13T12:29:48.492Z,18.80
2023-03-13T12:32:19.198Z,18.90
2023-03-13T12:34:52.806Z,19.10
2023-03-13T12:37:24.972Z,19.10
2023-03-13T12:39:56.338Z,19.20
2023-03-13T12:42:30.840Z,19.20
2023-03-13T12:44:59.548Z,19.20
2023-03-13T12:47:32.109Z,19.20
2023-03-13T12:50:07.583Z,19.30
2023-03-13T12:52:44.227Z,19.40
2023-03-13T12:55:24.749Z,19.60
2023-03-13T12:58:19.933Z,19.70
2023-03-13T13:00:51.353Z,19.80
2023-03-13T13:03:35.555Z,20.00
2023-03-13T13:06:08.612Z,20.40
2023-03-13T13:08:41.598Z,20.50
2023-03-13T13:11:28.985Z,20.60
2023-03-13T13:13:57.071Z,20.90
2023-03-13T13:16:27.602Z,21.40
2023-03-13T13:18:55.958Z,21.80
2023-03-13T13:21:26.464Z,22.20
2023-03-13T13:23:56.784Z,22.60
2023-03-13T13:26:49.539Z,22.90
2023-03-13T13:29:36.659Z,23.40
2023-03-13T13:32:15.241Z,23.50
2023-03-13T13:34:56.813Z,23.70
2023-03-13T13:37:29.275Z,23.40
2023-03-13T13:40:11.547Z,23.70
2023-03-13T13:42:54.468Z,24.40
2023-03-13T13:45:26.902Z,25.50
2023-03-13T13:48:13.491Z,26.20
2023-03-13T13:51:05.016Z,25.90
2023-03-13T13:53:39.440Z,25.60
2023-03-13T13:56:28.358Z,25.50
2023-03-13T13:58:58.486Z,25.30
2023-03-13T14:01:26.885Z,25.50
2023-03-13T14:04:02.416Z,26.20
2023-03-13T14:06:38.240Z,26.10
2023-03-13T14:09:16.071Z,26.40
2023-03-13T14:11:44.662Z,26.60
2023-03-13T14:14:20.555Z,26.70
2023-03-13T14:16:53.180Z,26.40
2023-03-13T14:19:25.013Z,26.50
2023-03-13T14:21:59.749Z,26.70
2023-03-13T14:24:29.495Z,27.00
2023-03-13T14:27:00.719Z,26.00
2023-03-13T14:29:29.566Z,26.90
2023-03-13T14:31:58.361Z,27.10
2023-03-13T14:34:28.643Z,26.90
2023-03-13T14:37:17.407Z,25.60
2023-03-13T14:39:48.691Z,25.00
2023-03-13T14:42:18.340Z,23.90
2023-03-13T14:44:50.848Z,22.90
2023-03-13T14:47:24.237Z,22.30
2023-03-13T14:49:56.924Z,22.00
2023-03-13T14:52:27.804Z,21.40
2023-03-13T14:54:57.611Z,21.10
2023-03-13T14:57:27.700Z,20.50
2023-03-13T14:59:56.928Z,20.10
2023-03-13T15:02:27.850Z,19.80
2023-03-13T15:04:59.575Z,19.50
2023-03-13T15:07:37.483Z,19.40
2023-03-13T15:10:20.682Z,19.30
2023-03-13T15:12:55.143Z,19.50
2023-03-13T15:15:25.219Z,19.40
2023-03-13T15:17:53.855Z,19.20
2023-03-13T15:20:31.147Z,19.10
2023-03-13T15:23:28.667Z,19.10
2023-03-13T15:25:57.457Z,19.10
2023-03-13T15:28:29.565Z,19.00
2023-03-13T15:30:58.084Z,18.90
2023-03-13T15:33:28.743Z,18.80
2023-03-13T15:36:00.249Z,18.90
2023-03-13T15:38:35.750Z,19.00
2023-03-13T15:41:06.108Z,18.90
2023-03-13T15:43:34.641Z,19.00
2023-03-13T15:46:05.465Z,18.90
2023-03-13T15:48:35.398Z,18.70
2023-03-13T15:51:05.870Z,18.70
2023-03-13T15:53:36.560Z,18.50
2023-03-13T15:56:13.155Z,18.50
2023-03-13T15:58:49.589Z,18.40
2023-03-13T16:01:19.043Z,18.40
2023-03-13T16:03:47.794Z,18.40
2023-03-13T16:06:18.144Z,18.40
2023-03-13T16:08:49.350Z,18.60
2023-03-13T16:11:18.041Z,18.50
2023-03-13T16:13:46.469Z,18.60
2023-03-13T16:16:19.587Z,18.50
2023-03-13T16:18:54.040Z,18.30
2023-03-13T16:21:24.850Z,18.20
2023-03-13T16:23:57.556Z,18.10
2023-03-13T16:26:27.675Z,18.00
2023-03-13T16:28:56.739Z,17.90
2023-03-13T16:31:28.324Z,17.80
2023-03-13T16:33:58.504Z,17.80
2023-03-13T16:36:29.697Z,17.80
2023-03-13T16:39:03.758Z,17.80
2023-03-13T16:41:38.708Z,17.80
2023-03-13T16:44:08.960Z,17.80
2023-03-13T16:46:42.366Z,17.70
2023-03-13T16:49:16.363Z,17.70
2023-03-13T16:51:48.249Z,17.60
2023-03-13T16:54:20.678Z,17.50
2023-03-13T16:56:52.110Z,17.50
2023-03-13T16:59:27.024Z,17.60
2023-03-13T17:02:03.205Z,17.40
2023-03-13T17:04:41.409Z,17.50
2023-03-13T17:07:17.142Z,17.50
2023-03-13T17:09:47.044Z,17.60
2023-03-13T17:12:15.318Z,17.50
2023-03-13T17:14:43.776Z,17.50
2023-03-13T17:17:19.800Z,17.30
2023-03-13T17:19:49.341Z,17.20
2023-03-13T17:22:18.815Z,17.20
2023-03-13T17:25:00.730Z,17.20
2023-03-13T17:27:30.933Z,17.10
2023-03-13T17:29:59.006Z,17.10
2023-03-13T17:32:28.429Z,16.90
2023-03-13T17:34:56.461Z,16.80
2023-03-13T17:37:25.353Z,16.80
2023-03-13T17:39:54.726Z,16.90
2023-03-13T17:42:23.309Z,16.90
2023-03-13T17:44:51.844Z,16.90
2023-03-13T17:47:23.758Z,16.70
2023-03-13T17:49:51.861Z,16.50
2023-03-13T17:52:20.414Z,16.60
2023-03-13T17:54:48.454Z,16.60
2023-03-13T17:57:20.158Z,16.70
2023-03-13T17:59:49.333Z,16.70
2023-03-13T18:02:18.225Z,16.50
2023-03-13T18:04:48.045Z,16.30
2023-03-13T18:07:17.936Z,16.30
2023-03-13T18:09:47.827Z,16.30
2023-03-13T18:12:16.648Z,16.50
2023-03-13T18:14:46.678Z,16.30
2023-03-13T18:17:17.334Z,16.10
2023-03-13T18:19:46.107Z,16.00
2023-03-13T18:22:15.133Z,15.90
2023-03-13T18:24:44.108Z,15.90
2023-03-13T18:27:13.287Z,15.90
2023-03-13T18:29:41.699Z,15.90
2023-03-13T18:32:13.094Z,16.00
2023-03-13T18:34:42.139Z,16.00
2023-03-13T18:37:16.064Z,15.90
2023-03-13T18:39:44.613Z,15.80
2023-03-13T18:42:12.645Z,15.80
2023-03-13T18:44:41.282Z,15.80
2023-03-13T18:47:13.473Z,15.80
2023-03-13T18:49:41.892Z,15.80
2023-03-13T18:52:10.970Z,15.70
2023-03-13T18:54:40.121Z,15.60
2023-03-13T18:57:11.488Z,15.40
2023-03-13T18:59:39.656Z,15.50
2023-03-13T19:02:07.942Z,15.50
2023-03-13T19:04:37.678Z,15.30
2023-03-13T19:07:11.560Z,15.20
2023-03-13T19:09:43.537Z,15.10
2023-03-13T19:12:12.836Z,15.00
2023-03-13T19:14:40.873Z,14.90
2023-03-13T19:17:14.710Z,14.80
2023-03-13T19:19:44.120Z,14.70
2023-03-13T19:22:14.160Z,14.60
2023-03-13T19:24:42.395Z,14.70
2023-03-13T19:27:13.355Z,14.60
2023-03-13T19:29:41.561Z,14.60
2023-03-13T19:32:13.963Z,14.60
2023-03-13T19:34:42.051Z,14.50
2023-03-13T19:37:12.545Z,14.50
2023-03-13T19:39:41.104Z,14.50
2023-03-13T19:42:09.863Z,14.50
2023-03-13T19:44:38.079Z,14.50
2023-03-13T19:47:06.538Z,14.50
2023-03-13T19:49:34.706Z,14.50
2023-03-13T19:52:03.030Z,14.50
2023-03-13T19:54:32.517Z,14.40
2023-03-13T19:57:01.277Z,14.40
2023-03-13T19:59:32.054Z,14.40
2023-03-13T20:02:04.519Z,14.20
2023-03-13T20:04:33.118Z,14.20
2023-03-13T20:07:02.603Z,14.20
2023-03-13T20:09:32.228Z,14.30
2023-03-13T20:12:00.942Z,14.30
2023-03-13T20:14:29.494Z,14.20
2023-03-13T20:16:57.716Z,14.00
2023-03-13T20:19:29.359Z,14.00
2023-03-13T20:22:03.744Z,14.10
2023-03-13T20:24:35.275Z,14.10
2023-03-13T20:27:05.414Z,14.20
2023-03-13T20:29:34.326Z,14.20
2023-03-13T20:32:05.089Z,14.30
2023-03-13T20:34:33.963Z,14.30
2023-03-13T20:37:04.005Z,14.30
2023-03-13T20:39:32.287Z,14.30
2023-03-13T20:42:03.200Z,14.30
2023-03-13T20:44:32.627Z,14.30
2023-03-13T20:47:00.953Z,14.30
2023-03-13T20:49:29.438Z,14.30
2023-03-13T20:51:57.520Z,14.30
2023-03-13T20:54:25.885Z,14.40
2023-03-13T20:56:54.875Z,14.40
2023-03-13T20:59:25.362Z,14.50
2023-03-13T21:01:53.587Z,14.40
2023-03-13T21:04:22.479Z,14.00
2023-03-13T21:06:50.628Z,13.90
2023-03-13T21:09:18.906Z,13.80
2023-03-13T21:11:46.987Z,13.80
2023-03-13T21:14:15.068Z,13.80
2023-03-13T21:16:44.528Z,13.80
2023-03-13T21:19:13.042Z,13.70
2023-03-13T21:21:41.135Z,13.70
2023-03-13T21:24:09.683Z,13.60
2023-03-13T21:26:38.043Z,13.60
2023-03-13T21:29:06.212Z,13.70
2023-03-13T21:31:34.496Z,13.80
2023-03-13T21:34:03.988Z,13.90
2023-03-13T21:36:32.480Z,14.00
2023-03-13T21:39:00.641Z,14.00
2023-03-13T21:41:28.810Z,13.90
2023-03-13T21:43:57.052Z,13.90
2023-03-13T21:46:25.672Z,13.90
2023-03-13T21:48:53.757Z,13.80
2023-03-13T21:51:23.728Z,13.90
2023-03-13T21:53:51.811Z,13.80
2023-03-13T21:56:21.409Z,13.70
2023-03-13T21:58:49.661Z,13.60
2023-03-13T22:01:17.810Z,13.60
2023-03-13T22:03:45.968Z,13.60
2023-03-13T22:06:14.560Z,13.60
2023-03-13T22:08:44.793Z,13.50
2023-03-13T22:11:12.948Z,13.40
2023-03-13T22:13:41.220Z,13.30
2023-03-13T22:16:10.340Z,13.20
2023-03-13T22:18:39.320Z,13.10
2023-03-13T22:21:07.565Z,13.10
2023-03-13T22:23:35.679Z,13.10
2023-03-13T22:26:05.187Z,13.10
2023-03-13T22:28:33.244Z,13.10
2023-03-13T22:31:02.171Z,13.10
2023-03-13T22:33:30.376Z,13.20
2023-03-13T22:35:58.768Z,13.30
2023-03-13T22:38:26.861Z,13.30
2023-03-13T22:40:58.413Z,13.40
2023-03-13T22:43:28.093Z,13.40
2023-03-13T22:45:56.493Z,13.40
2023-03-13T22:48:24.847Z,13.40
2023-03-13T22:50:59.142Z,13.50
2023-03-13T22:53:27.185Z,13.40
2023-03-13T22:55:55.512Z,13.50
2023-03-13T22:58:23.914Z,13.50
2023-03-13T23:00:55.036Z,13.50
2023-03-13T23:03:23.709Z,13.50
2023-03-13T23:05:51.999Z,13.40
2023-03-13T23:08:20.078Z,13.40
2023-03-13T23:10:48.516Z,13.40
2023-03-13T23:13:17.582Z,13.40
2023-03-13T23:15:55.555Z,13.30
2023-03-13T23:18:26.802Z,13.30
2023-03-13T23:20:55.091Z,13.20
2023-03-13T23:23:23.410Z,13.20
2023-03-13T23:25:51.615Z,13.20
2023-03-13T23:28:20.159Z,13.10
2023-03-13T23:30:48.324Z,13.00
2023-03-13T23:33:16.620Z,13.00
2023-03-13T23:35:46.746Z,13.00
2023-03-13T23:38:18.380Z,12.90
2023-03-13T23:40:46.761Z,12.90
2023-03-13T23:43:15.041Z,12.90
2023-03-13T23:45:43.119Z,12.90
2023-03-13T23:48:11.677Z,12.80
2023-03-13T23:50:39.922Z,12.80
2023-03-13T23:53:09.301Z,12.80
2023-03-13T23:55:37.784Z,12.70
2023-03-13T23:58:05.852Z,12.60
